sensor_id;sensor_type;location;lat;lon;timestamp;P1;durP1;ratioP1;P2;durP2;ratioP2
67049;SDS011;53955;52.442;13.284;2022-08-19T00:01:47;7.85;;;5.90;;
67049;SDS011;53955;52.442;13.284;2022-08-19T00:04:16;8.05;;;6.35;;
67049;SDS011;53955;52.442;13.284;2022-08-19T00:06:45;8.57;;;6.35;;
67049;SDS011;53955;52.442;13.284;2022-08-19T00:09:13;8.77;;;6.20;;
67049;SDS011;53955;52.442;13.284;2022-08-19T00:11:45;7.30;;;5.80;;
67049;SDS011;53955;52.442;13.284;2022-08-19T00:14:13;8.23;;;6.03;;
67049;SDS011;53955;52.442;13.284;2022-08-19T00:16:42;9.00;;;6.45;;
67049;SDS011;53955;52.442;13.284;2022-08-19T00:19:09;8.13;;;6.32;;
67049;SDS011;53955;52.442;13.284;2022-08-19T00:21:37;8.20;;;5.88;;
67049;SDS011;53955;52.442;13.284;2022-08-19T00:24:04;9.13;;;6.47;;
67049;SDS011;53955;52.442;13.284;2022-08-19T00:26:32;7.72;;;5.95;;
67049;SDS011;53955;52.442;13.284;2022-08-19T00:29:01;7.82;;;5.85;;
67049;SDS011;53955;52.442;13.284;2022-08-19T00:31:28;8.10;;;6.30;;
67049;SDS011;53955;52.442;13.284;2022-08-19T00:33:56;10.00;;;6.43;;
67049;SDS011;53955;52.442;13.284;2022-08-19T00:36:22;7.72;;;6.20;;
67049;SDS011;53955;52.442;13.284;2022-08-19T00:38:49;11.50;;;6.85;;
67049;SDS011;53955;52.442;13.284;2022-08-19T00:41:17;9.73;;;6.72;;
67049;SDS011;53955;52.442;13.284;2022-08-19T00:43:56;8.25;;;6.15;;
67049;SDS011;53955;52.442;13.284;2022-08-19T00:46:25;9.38;;;6.57;;
67049;SDS011;53955;52.442;13.284;2022-08-19T00:48:52;8.35;;;6.38;;
67049;SDS011;53955;52.442;13.284;2022-08-19T00:51:19;9.48;;;6.55;;
67049;SDS011;53955;52.442;13.284;2022-08-19T00:53:47;8.65;;;6.93;;
67049;SDS011;53955;52.442;13.284;2022-08-19T00:56:13;9.82;;;6.45;;
67049;SDS011;53955;52.442;13.284;2022-08-19T00:58:40;8.05;;;6.38;;
67049;SDS011;53955;52.442;13.284;2022-08-19T01:01:07;9.45;;;6.60;;
67049;SDS011;53955;52.442;13.284;2022-08-19T01:03:35;8.30;;;6.30;;
67049;SDS011;53955;52.442;13.284;2022-08-19T01:06:01;7.30;;;6.07;;
67049;SDS011;53955;52.442;13.284;2022-08-19T01:08:28;8.90;;;6.78;;
67049;SDS011;53955;52.442;13.284;2022-08-19T01:10:56;8.18;;;6.82;;
67049;SDS011;53955;52.442;13.284;2022-08-19T01:13:25;8.60;;;6.50;;
67049;SDS011;53955;52.442;13.284;2022-08-19T01:15:55;11.65;;;7.05;;
67049;SDS011;53955;52.442;13.284;2022-08-19T01:18:24;8.95;;;7.07;;
67049;SDS011;53955;52.442;13.284;2022-08-19T01:20:54;8.60;;;6.63;;
67049;SDS011;53955;52.442;13.284;2022-08-19T01:23:25;9.85;;;6.75;;
67049;SDS011;53955;52.442;13.284;2022-08-19T01:26:08;9.05;;;6.28;;
67049;SDS011;53955;52.442;13.284;2022-08-19T01:28:36;8.65;;;6.82;;
67049;SDS011;53955;52.442;13.284;2022-08-19T01:31:04;9.15;;;7.07;;
67049;SDS011;53955;52.442;13.284;2022-08-19T01:33:32;9.48;;;6.72;;
67049;SDS011;53955;52.442;13.284;2022-08-19T01:36:06;9.73;;;6.85;;
67049;SDS011;53955;52.442;13.284;2022-08-19T01:38:38;9.77;;;7.20;;
67049;SDS011;53955;52.442;13.284;2022-08-19T01:41:08;10.30;;;7.03;;
67049;SDS011;53955;52.442;13.284;2022-08-19T01:43:34;8.38;;;6.45;;
67049;SDS011;53955;52.442;13.284;2022-08-19T01:46:01;9.90;;;7.28;;
67049;SDS011;53955;52.442;13.284;2022-08-19T01:48:32;9.63;;;7.38;;
67049;SDS011;53955;52.442;13.284;2022-08-19T01:50:59;11.43;;;6.78;;
67049;SDS011;53955;52.442;13.284;2022-08-19T01:53:26;10.23;;;6.65;;
67049;SDS011;53955;52.442;13.284;2022-08-19T01:55:54;12.18;;;7.32;;
67049;SDS011;53955;52.442;13.284;2022-08-19T01:58:23;13.85;;;7.20;;
67049;SDS011;53955;52.442;13.284;2022-08-19T02:00:51;12.95;;;6.82;;
67049;SDS011;53955;52.442;13.284;2022-08-19T02:03:18;10.38;;;7.10;;
67049;SDS011;53955;52.442;13.284;2022-08-19T02:05:45;9.60;;;6.55;;
67049;SDS011;53955;52.442;13.284;2022-08-19T02:08:11;9.73;;;7.13;;
67049;SDS011;53955;52.442;13.284;2022-08-19T02:10:39;10.10;;;7.28;;
67049;SDS011;53955;52.442;13.284;2022-08-19T02:13:08;9.23;;;6.75;;
67049;SDS011;53955;52.442;13.284;2022-08-19T02:15:35;10.30;;;7.10;;
67049;SDS011;53955;52.442;13.284;2022-08-19T02:18:03;10.07;;;7.00;;
67049;SDS011;53955;52.442;13.284;2022-08-19T02:20:30;9.45;;;6.72;;
67049;SDS011;53955;52.442;13.284;2022-08-19T02:22:56;11.25;;;6.50;;
67049;SDS011;53955;52.442;13.284;2022-08-19T02:25:23;9.60;;;6.13;;
67049;SDS011;53955;52.442;13.284;2022-08-19T02:27:50;8.57;;;6.70;;
67049;SDS011;53955;52.442;13.284;2022-08-19T02:30:17;12.32;;;6.72;;
67049;SDS011;53955;52.442;13.284;2022-08-19T02:32:44;12.10;;;7.75;;
67049;SDS011;53955;52.442;13.284;2022-08-19T02:35:11;9.02;;;6.45;;
67049;SDS011;53955;52.442;13.284;2022-08-19T02:37:39;9.38;;;6.35;;
67049;SDS011;53955;52.442;13.284;2022-08-19T02:40:23;9.77;;;6.68;;
67049;SDS011;53955;52.442;13.284;2022-08-19T02:42:50;10.32;;;6.68;;
67049;SDS011;53955;52.442;13.284;2022-08-19T02:45:17;10.40;;;7.03;;
67049;SDS011;53955;52.442;13.284;2022-08-19T02:47:45;10.07;;;6.43;;
67049;SDS011;53955;52.442;13.284;2022-08-19T02:50:11;11.23;;;7.00;;
67049;SDS011;53955;52.442;13.284;2022-08-19T02:52:38;10.52;;;6.82;;
67049;SDS011;53955;52.442;13.284;2022-08-19T02:55:05;9.68;;;5.85;;
67049;SDS011;53955;52.442;13.284;2022-08-19T02:57:32;8.98;;;6.22;;
67049;SDS011;53955;52.442;13.284;2022-08-19T03:00:00;8.07;;;6.13;;
67049;SDS011;53955;52.442;13.284;2022-08-19T03:02:30;10.32;;;6.63;;
67049;SDS011;53955;52.442;13.284;2022-08-19T03:04:57;7.85;;;6.45;;
67049;SDS011;53955;52.442;13.284;2022-08-19T03:07:23;10.38;;;7.03;;
67049;SDS011;53955;52.442;13.284;2022-08-19T03:09:50;8.73;;;6.47;;
67049;SDS011;53955;52.442;13.284;2022-08-19T03:12:17;10.75;;;7.68;;
67049;SDS011;53955;52.442;13.284;2022-08-19T03:14:43;9.38;;;7.32;;
67049;SDS011;53955;52.442;13.284;2022-08-19T03:17:10;9.52;;;7.18;;
67049;SDS011;53955;52.442;13.284;2022-08-19T03:19:38;10.57;;;6.82;;
67049;SDS011;53955;52.442;13.284;2022-08-19T03:22:05;10.10;;;7.72;;
67049;SDS011;53955;52.442;13.284;2022-08-19T03:24:32;9.95;;;7.63;;
67049;SDS011;53955;52.442;13.284;2022-08-19T03:26:59;12.10;;;7.40;;
67049;SDS011;53955;52.442;13.284;2022-08-19T03:29:29;10.63;;;8.02;;
67049;SDS011;53955;52.442;13.284;2022-08-19T03:31:57;11.65;;;8.32;;
67049;SDS011;53955;52.442;13.284;2022-08-19T03:34:26;9.43;;;7.32;;
67049;SDS011;53955;52.442;13.284;2022-08-19T03:36:57;11.40;;;8.05;;
67049;SDS011;53955;52.442;13.284;2022-08-19T03:39:28;10.15;;;7.38;;
67049;SDS011;53955;52.442;13.284;2022-08-19T03:41:55;9.88;;;7.28;;
67049;SDS011;53955;52.442;13.284;2022-08-19T03:44:24;9.57;;;7.30;;
67049;SDS011;53955;52.442;13.284;2022-08-19T03:46:53;11.05;;;7.85;;
67049;SDS011;53955;52.442;13.284;2022-08-19T03:49:22;10.55;;;8.02;;
67049;SDS011;53955;52.442;13.284;2022-08-19T03:51:50;9.10;;;7.35;;
67049;SDS011;53955;52.442;13.284;2022-08-19T03:54:19;10.77;;;8.48;;
67049;SDS011;53955;52.442;13.284;2022-08-19T03:56:48;9.90;;;7.60;;
67049;SDS011;53955;52.442;13.284;2022-08-19T03:59:16;11.48;;;7.72;;
67049;SDS011;53955;52.442;13.284;2022-08-19T04:01:47;10.93;;;7.82;;
67049;SDS011;53955;52.442;13.284;2022-08-19T04:04:14;11.23;;;7.68;;
67049;SDS011;53955;52.442;13.284;2022-08-19T04:06:40;11.02;;;7.60;;
67049;SDS011;53955;52.442;13.284;2022-08-19T04:09:09;11.38;;;7.55;;
67049;SDS011;53955;52.442;13.284;2022-08-19T04:11:40;10.93;;;7.20;;
67049;SDS011;53955;52.442;13.284;2022-08-19T04:14:08;10.00;;;7.80;;
67049;SDS011;53955;52.442;13.284;2022-08-19T04:16:36;11.52;;;8.25;;
67049;SDS011;53955;52.442;13.284;2022-08-19T04:19:03;11.18;;;7.82;;
67049;SDS011;53955;52.442;13.284;2022-08-19T04:21:31;12.02;;;8.13;;
67049;SDS011;53955;52.442;13.284;2022-08-19T04:23:58;11.55;;;8.32;;
67049;SDS011;53955;52.442;13.284;2022-08-19T04:26:25;13.63;;;8.55;;
67049;SDS011;53955;52.442;13.284;2022-08-19T04:28:54;11.23;;;8.07;;
67049;SDS011;53955;52.442;13.284;2022-08-19T04:31:21;11.73;;;7.50;;
67049;SDS011;53955;52.442;13.284;2022-08-19T04:33:51;12.57;;;8.18;;
67049;SDS011;53955;52.442;13.284;2022-08-19T04:36:19;10.35;;;6.95;;
67049;SDS011;53955;52.442;13.284;2022-08-19T04:38:47;10.05;;;7.03;;
67049;SDS011;53955;52.442;13.284;2022-08-19T04:41:15;10.60;;;7.78;;
67049;SDS011;53955;52.442;13.284;2022-08-19T04:44:01;11.27;;;8.13;;
67049;SDS011;53955;52.442;13.284;2022-08-19T04:46:28;10.20;;;7.63;;
67049;SDS011;53955;52.442;13.284;2022-08-19T04:48:55;10.18;;;7.20;;
67049;SDS011;53955;52.442;13.284;2022-08-19T04:51:22;9.63;;;7.00;;
67049;SDS011;53955;52.442;13.284;2022-08-19T04:53:49;10.20;;;6.82;;
67049;SDS011;53955;52.442;13.284;2022-08-19T04:56:17;9.93;;;7.43;;
67049;SDS011;53955;52.442;13.284;2022-08-19T04:58:46;10.77;;;6.88;;
67049;SDS011;53955;52.442;13.284;2022-08-19T05:01:19;8.43;;;6.68;;
67049;SDS011;53955;52.442;13.284;2022-08-19T05:03:47;8.80;;;7.07;;
67049;SDS011;53955;52.442;13.284;2022-08-19T05:06:14;8.90;;;6.78;;
67049;SDS011;53955;52.442;13.284;2022-08-19T05:08:42;11.95;;;7.28;;
67049;SDS011;53955;52.442;13.284;2022-08-19T05:11:10;9.77;;;6.40;;
67049;SDS011;53955;52.442;13.284;2022-08-19T05:13:38;8.20;;;6.65;;
67049;SDS011;53955;52.442;13.284;2022-08-19T05:16:05;7.50;;;5.68;;
67049;SDS011;53955;52.442;13.284;2022-08-19T05:18:34;11.80;;;7.05;;
67049;SDS011;53955;52.442;13.284;2022-08-19T05:21:19;8.20;;;6.57;;
67049;SDS011;53955;52.442;13.284;2022-08-19T05:24:04;7.50;;;6.45;;
67049;SDS011;53955;52.442;13.284;2022-08-19T05:26:33;9.25;;;6.38;;
67049;SDS011;53955;52.442;13.284;2022-08-19T05:28:59;9.90;;;6.63;;
67049;SDS011;53955;52.442;13.284;2022-08-19T05:31:26;10.00;;;6.28;;
67049;SDS011;53955;52.442;13.284;2022-08-19T05:33:54;10.15;;;5.65;;
67049;SDS011;53955;52.442;13.284;2022-08-19T05:36:23;9.02;;;6.68;;
67049;SDS011;53955;52.442;13.284;2022-08-19T05:38:49;8.05;;;6.53;;
67049;SDS011;53955;52.442;13.284;2022-08-19T05:41:17;8.93;;;6.28;;
67049;SDS011;53955;52.442;13.284;2022-08-19T05:43:44;9.70;;;7.30;;
67049;SDS011;53955;52.442;13.284;2022-08-19T05:46:15;9.02;;;6.30;;
67049;SDS011;53955;52.442;13.284;2022-08-19T05:48:44;10.60;;;6.65;;
67049;SDS011;53955;52.442;13.284;2022-08-19T05:51:12;9.35;;;6.30;;
67049;SDS011;53955;52.442;13.284;2022-08-19T05:53:39;7.50;;;5.88;;
67049;SDS011;53955;52.442;13.284;2022-08-19T05:56:05;10.02;;;6.55;;
67049;SDS011;53955;52.442;13.284;2022-08-19T05:58:33;8.57;;;5.90;;
67049;SDS011;53955;52.442;13.284;2022-08-19T06:01:00;8.57;;;5.70;;
67049;SDS011;53955;52.442;13.284;2022-08-19T06:03:30;6.68;;;5.53;;
67049;SDS011;53955;52.442;13.284;2022-08-19T06:05:57;8.43;;;6.10;;
67049;SDS011;53955;52.442;13.284;2022-08-19T06:08:26;7.88;;;6.20;;
67049;SDS011;53955;52.442;13.284;2022-08-19T06:10:53;8.90;;;6.22;;
67049;SDS011;53955;52.442;13.284;2022-08-19T06:13:20;9.63;;;6.70;;
67049;SDS011;53955;52.442;13.284;2022-08-19T06:15:47;8.55;;;6.15;;
67049;SDS011;53955;52.442;13.284;2022-08-19T06:18:15;13.50;;;6.65;;
67049;SDS011;53955;52.442;13.284;2022-08-19T06:20:42;8.60;;;6.38;;
67049;SDS011;53955;52.442;13.284;2022-08-19T06:23:08;11.50;;;7.03;;
67049;SDS011;53955;52.442;13.284;2022-08-19T06:25:36;12.38;;;6.60;;
67049;SDS011;53955;52.442;13.284;2022-08-19T06:28:05;8.52;;;6.28;;
67049;SDS011;53955;52.442;13.284;2022-08-19T06:32:59;8.77;;;6.65;;
67049;SDS011;53955;52.442;13.284;2022-08-19T06:35:26;9.63;;;7.15;;
67049;SDS011;53955;52.442;13.284;2022-08-19T06:37:54;9.57;;;7.18;;
67049;SDS011;53955;52.442;13.284;2022-08-19T06:40:21;10.68;;;7.15;;
67049;SDS011;53955;52.442;13.284;2022-08-19T06:42:49;8.23;;;6.28;;
67049;SDS011;53955;52.442;13.284;2022-08-19T06:45:15;10.35;;;7.13;;
67049;SDS011;53955;52.442;13.284;2022-08-19T06:47:42;9.43;;;7.50;;
67049;SDS011;53955;52.442;13.284;2022-08-19T06:50:13;12.30;;;7.47;;
67049;SDS011;53955;52.442;13.284;2022-08-19T06:52:39;9.27;;;7.10;;
67049;SDS011;53955;52.442;13.284;2022-08-19T06:55:06;9.65;;;7.53;;
67049;SDS011;53955;52.442;13.284;2022-08-19T06:57:33;10.38;;;7.28;;
67049;SDS011;53955;52.442;13.284;2022-08-19T07:00:02;9.82;;;6.90;;
67049;SDS011;53955;52.442;13.284;2022-08-19T07:02:29;12.70;;;7.53;;
67049;SDS011;53955;52.442;13.284;2022-08-19T07:04:56;10.25;;;7.80;;
67049;SDS011;53955;52.442;13.284;2022-08-19T07:07:23;11.45;;;8.27;;
67049;SDS011;53955;52.442;13.284;2022-08-19T07:09:51;10.27;;;7.45;;
67049;SDS011;53955;52.442;13.284;2022-08-19T07:12:18;10.98;;;7.80;;
67049;SDS011;53955;52.442;13.284;2022-08-19T07:14:45;9.63;;;7.88;;
67049;SDS011;53955;52.442;13.284;2022-08-19T07:17:13;10.25;;;8.18;;
67049;SDS011;53955;52.442;13.284;2022-08-19T07:19:41;10.90;;;7.05;;
67049;SDS011;53955;52.442;13.284;2022-08-19T07:22:08;10.10;;;7.90;;
67049;SDS011;53955;52.442;13.284;2022-08-19T07:24:36;9.65;;;7.50;;
67049;SDS011;53955;52.442;13.284;2022-08-19T07:27:04;12.63;;;7.72;;
67049;SDS011;53955;52.442;13.284;2022-08-19T07:29:32;10.30;;;7.70;;
67049;SDS011;53955;52.442;13.284;2022-08-19T07:32:01;11.20;;;7.78;;
67049;SDS011;53955;52.442;13.284;2022-08-19T07:34:30;10.65;;;8.00;;
67049;SDS011;53955;52.442;13.284;2022-08-19T07:36:59;13.07;;;8.63;;
67049;SDS011;53955;52.442;13.284;2022-08-19T07:39:27;10.15;;;7.70;;
67049;SDS011;53955;52.442;13.284;2022-08-19T07:41:56;10.63;;;7.90;;
67049;SDS011;53955;52.442;13.284;2022-08-19T07:44:24;11.75;;;8.27;;
67049;SDS011;53955;52.442;13.284;2022-08-19T07:46:52;10.25;;;7.68;;
67049;SDS011;53955;52.442;13.284;2022-08-19T07:49:20;9.65;;;7.32;;
67049;SDS011;53955;52.442;13.284;2022-08-19T07:51:50;12.60;;;8.82;;
67049;SDS011;53955;52.442;13.284;2022-08-19T07:54:19;11.38;;;8.50;;
67049;SDS011;53955;52.442;13.284;2022-08-19T07:56:47;9.95;;;8.60;;
67049;SDS011;53955;52.442;13.284;2022-08-19T07:59:15;13.02;;;8.68;;
67049;SDS011;53955;52.442;13.284;2022-08-19T08:01:43;12.68;;;9.32;;
67049;SDS011;53955;52.442;13.284;2022-08-19T08:04:10;11.63;;;9.68;;
67049;SDS011;53955;52.442;13.284;2022-08-19T08:06:55;13.23;;;9.43;;
67049;SDS011;53955;52.442;13.284;2022-08-19T08:09:41;13.50;;;9.30;;
67049;SDS011;53955;52.442;13.284;2022-08-19T08:12:10;11.48;;;9.00;;
67049;SDS011;53955;52.442;13.284;2022-08-19T08:14:43;12.20;;;9.25;;
67049;SDS011;53955;52.442;13.284;2022-08-19T08:17:12;13.32;;;9.45;;
67049;SDS011;53955;52.442;13.284;2022-08-19T08:19:40;13.93;;;9.52;;
67049;SDS011;53955;52.442;13.284;2022-08-19T08:22:09;12.85;;;9.25;;
67049;SDS011;53955;52.442;13.284;2022-08-19T08:24:59;13.10;;;9.88;;
67049;SDS011;53955;52.442;13.284;2022-08-19T08:27:27;13.60;;;10.57;;
67049;SDS011;53955;52.442;13.284;2022-08-19T08:29:55;12.68;;;9.82;;
67049;SDS011;53955;52.442;13.284;2022-08-19T08:32:22;15.00;;;9.63;;
67049;SDS011;53955;52.442;13.284;2022-08-19T08:34:49;12.90;;;9.25;;
67049;SDS011;53955;52.442;13.284;2022-08-19T08:37:17;13.10;;;9.60;;
67049;SDS011;53955;52.442;13.284;2022-08-19T08:39:43;13.45;;;8.98;;
67049;SDS011;53955;52.442;13.284;2022-08-19T08:42:12;12.80;;;9.77;;
67049;SDS011;53955;52.442;13.284;2022-08-19T08:44:48;12.55;;;9.40;;
67049;SDS011;53955;52.442;13.284;2022-08-19T08:47:20;13.18;;;8.98;;
67049;SDS011;53955;52.442;13.284;2022-08-19T08:49:50;12.43;;;9.73;;
67049;SDS011;53955;52.442;13.284;2022-08-19T08:52:21;12.85;;;10.55;;
67049;SDS011;53955;52.442;13.284;2022-08-19T08:54:50;12.20;;;9.32;;
67049;SDS011;53955;52.442;13.284;2022-08-19T08:57:20;13.70;;;9.95;;
67049;SDS011;53955;52.442;13.284;2022-08-19T08:59:52;11.50;;;9.15;;
67049;SDS011;53955;52.442;13.284;2022-08-19T09:02:23;14.38;;;10.30;;
67049;SDS011;53955;52.442;13.284;2022-08-19T09:04:49;12.82;;;9.38;;
67049;SDS011;53955;52.442;13.284;2022-08-19T09:07:30;10.88;;;8.63;;
67049;SDS011;53955;52.442;13.284;2022-08-19T09:10:10;13.40;;;9.40;;
67049;SDS011;53955;52.442;13.284;2022-08-19T09:12:46;11.82;;;9.27;;
67049;SDS011;53955;52.442;13.284;2022-08-19T09:15:22;13.77;;;9.25;;
67049;SDS011;53955;52.442;13.284;2022-08-19T09:17:54;11.23;;;8.68;;
67049;SDS011;53955;52.442;13.284;2022-08-19T09:20:24;13.13;;;9.77;;
67049;SDS011;53955;52.442;13.284;2022-08-19T09:22:52;10.60;;;8.90;;
67049;SDS011;53955;52.442;13.284;2022-08-19T09:25:20;11.65;;;9.07;;
67049;SDS011;53955;52.442;13.284;2022-08-19T09:30:16;10.57;;;8.32;;
67049;SDS011;53955;52.442;13.284;2022-08-19T09:32:47;11.23;;;7.90;;
67049;SDS011;53955;52.442;13.284;2022-08-19T09:35:14;11.02;;;9.13;;
67049;SDS011;53955;52.442;13.284;2022-08-19T09:37:41;10.35;;;8.50;;
67049;SDS011;53955;52.442;13.284;2022-08-19T09:40:12;10.25;;;7.72;;
67049;SDS011;53955;52.442;13.284;2022-08-19T09:42:39;9.90;;;7.90;;
67049;SDS011;53955;52.442;13.284;2022-08-19T09:45:08;10.43;;;8.18;;
67049;SDS011;53955;52.442;13.284;2022-08-19T09:47:35;12.07;;;8.75;;
67049;SDS011;53955;52.442;13.284;2022-08-19T09:50:03;9.63;;;8.20;;
67049;SDS011;53955;52.442;13.284;2022-08-19T09:52:31;9.70;;;7.63;;
67049;SDS011;53955;52.442;13.284;2022-08-19T09:55:01;10.10;;;7.70;;
67049;SDS011;53955;52.442;13.284;2022-08-19T09:57:30;10.20;;;7.68;;
67049;SDS011;53955;52.442;13.284;2022-08-19T09:59:56;10.45;;;8.75;;
67049;SDS011;53955;52.442;13.284;2022-08-19T10:02:23;12.02;;;8.00;;
67049;SDS011;53955;52.442;13.284;2022-08-19T10:04:50;10.73;;;7.93;;
67049;SDS011;53955;52.442;13.284;2022-08-19T10:07:35;11.32;;;8.30;;
67049;SDS011;53955;52.442;13.284;2022-08-19T10:10:02;11.60;;;8.25;;
67049;SDS011;53955;52.442;13.284;2022-08-19T10:12:30;9.63;;;8.20;;
67049;SDS011;53955;52.442;13.284;2022-08-19T10:14:58;12.20;;;9.77;;
67049;SDS011;53955;52.442;13.284;2022-08-19T10:17:24;12.65;;;9.73;;
67049;SDS011;53955;52.442;13.284;2022-08-19T10:19:53;13.18;;;9.57;;
67049;SDS011;53955;52.442;13.284;2022-08-19T10:22:20;11.77;;;9.18;;
67049;SDS011;53955;52.442;13.284;2022-08-19T10:24:47;10.90;;;7.22;;
67049;SDS011;53955;52.442;13.284;2022-08-19T10:27:14;8.70;;;7.60;;
67049;SDS011;53955;52.442;13.284;2022-08-19T10:29:42;10.73;;;8.23;;
67049;SDS011;53955;52.442;13.284;2022-08-19T10:32:08;11.52;;;7.93;;
67049;SDS011;53955;52.442;13.284;2022-08-19T10:34:36;13.93;;;8.25;;
67049;SDS011;53955;52.442;13.284;2022-08-19T10:37:04;11.35;;;7.70;;
67049;SDS011;53955;52.442;13.284;2022-08-19T10:39:32;12.90;;;8.02;;
67049;SDS011;53955;52.442;13.284;2022-08-19T10:42:03;8.63;;;7.35;;
67049;SDS011;53955;52.442;13.284;2022-08-19T10:44:31;9.43;;;7.57;;
67049;SDS011;53955;52.442;13.284;2022-08-19T10:47:01;8.82;;;7.00;;
67049;SDS011;53955;52.442;13.284;2022-08-19T10:49:29;8.35;;;6.97;;
67049;SDS011;53955;52.442;13.284;2022-08-19T10:51:57;9.35;;;7.78;;
67049;SDS011;53955;52.442;13.284;2022-08-19T10:54:41;11.30;;;7.70;;
67049;SDS011;53955;52.442;13.284;2022-08-19T10:57:29;9.93;;;7.90;;
67049;SDS011;53955;52.442;13.284;2022-08-19T10:59:56;10.07;;;7.72;;
67049;SDS011;53955;52.442;13.284;2022-08-19T11:02:24;10.40;;;8.05;;
67049;SDS011;53955;52.442;13.284;2022-08-19T11:04:51;9.60;;;7.68;;
67049;SDS011;53955;52.442;13.284;2022-08-19T11:07:17;8.90;;;7.40;;
67049;SDS011;53955;52.442;13.284;2022-08-19T11:09:44;9.77;;;7.53;;
67049;SDS011;53955;52.442;13.284;2022-08-19T11:12:11;11.45;;;7.90;;
67049;SDS011;53955;52.442;13.284;2022-08-19T11:14:40;10.63;;;8.07;;
67049;SDS011;53955;52.442;13.284;2022-08-19T11:17:07;11.93;;;8.43;;
67049;SDS011;53955;52.442;13.284;2022-08-19T11:19:35;9.65;;;7.70;;
67049;SDS011;53955;52.442;13.284;2022-08-19T11:22:01;13.05;;;8.15;;
67049;SDS011;53955;52.442;13.284;2022-08-19T11:24:28;9.95;;;7.82;;
67049;SDS011;53955;52.442;13.284;2022-08-19T11:27:00;10.68;;;8.00;;
67049;SDS011;53955;52.442;13.284;2022-08-19T11:29:29;10.77;;;8.00;;
67049;SDS011;53955;52.442;13.284;2022-08-19T11:31:56;10.63;;;7.93;;
67049;SDS011;53955;52.442;13.284;2022-08-19T11:34:24;9.50;;;7.55;;
67049;SDS011;53955;52.442;13.284;2022-08-19T11:36:54;10.85;;;7.88;;
67049;SDS011;53955;52.442;13.284;2022-08-19T11:39:23;11.45;;;8.15;;
67049;SDS011;53955;52.442;13.284;2022-08-19T11:41:50;14.95;;;7.50;;
67049;SDS011;53955;52.442;13.284;2022-08-19T11:44:17;9.15;;;7.57;;
67049;SDS011;53955;52.442;13.284;2022-08-19T11:46:44;10.25;;;7.70;;
67049;SDS011;53955;52.442;13.284;2022-08-19T11:49:12;10.13;;;7.65;;
67049;SDS011;53955;52.442;13.284;2022-08-19T11:51:39;11.57;;;7.25;;
67049;SDS011;53955;52.442;13.284;2022-08-19T11:54:09;9.52;;;7.65;;
67049;SDS011;53955;52.442;13.284;2022-08-19T11:56:37;13.65;;;7.75;;
67049;SDS011;53955;52.442;13.284;2022-08-19T11:59:05;10.75;;;6.78;;
67049;SDS011;53955;52.442;13.284;2022-08-19T12:01:32;8.90;;;6.50;;
67049;SDS011;53955;52.442;13.284;2022-08-19T12:04:00;8.35;;;6.50;;
67049;SDS011;53955;52.442;13.284;2022-08-19T12:06:27;8.98;;;7.25;;
67049;SDS011;53955;52.442;13.284;2022-08-19T12:08:56;8.55;;;6.13;;
67049;SDS011;53955;52.442;13.284;2022-08-19T12:11:26;8.18;;;6.68;;
67049;SDS011;53955;52.442;13.284;2022-08-19T12:13:53;8.48;;;6.18;;
67049;SDS011;53955;52.442;13.284;2022-08-19T12:16:21;8.80;;;5.90;;
67049;SDS011;53955;52.442;13.284;2022-08-19T12:18:49;6.80;;;5.65;;
67049;SDS011;53955;52.442;13.284;2022-08-19T12:21:18;8.52;;;6.55;;
67049;SDS011;53955;52.442;13.284;2022-08-19T12:23:47;8.82;;;6.70;;
67049;SDS011;53955;52.442;13.284;2022-08-19T12:26:15;8.20;;;6.45;;
67049;SDS011;53955;52.442;13.284;2022-08-19T12:28:43;8.57;;;6.20;;
67049;SDS011;53955;52.442;13.284;2022-08-19T12:31:10;8.30;;;6.00;;
67049;SDS011;53955;52.442;13.284;2022-08-19T12:33:37;8.15;;;6.28;;
67049;SDS011;53955;52.442;13.284;2022-08-19T12:36:06;8.75;;;6.75;;
67049;SDS011;53955;52.442;13.284;2022-08-19T12:38:34;9.48;;;6.28;;
67049;SDS011;53955;52.442;13.284;2022-08-19T12:41:02;7.68;;;5.75;;
67049;SDS011;53955;52.442;13.284;2022-08-19T12:43:31;7.93;;;6.00;;
67049;SDS011;53955;52.442;13.284;2022-08-19T12:45:59;8.23;;;6.05;;
67049;SDS011;53955;52.442;13.284;2022-08-19T12:48:26;7.30;;;5.75;;
67049;SDS011;53955;52.442;13.284;2022-08-19T12:50:54;7.68;;;6.07;;
67049;SDS011;53955;52.442;13.284;2022-08-19T12:53:20;8.13;;;6.10;;
67049;SDS011;53955;52.442;13.284;2022-08-19T12:55:47;7.90;;;5.85;;
67049;SDS011;53955;52.442;13.284;2022-08-19T12:58:13;7.57;;;5.78;;
67049;SDS011;53955;52.442;13.284;2022-08-19T13:00:40;7.80;;;6.07;;
67049;SDS011;53955;52.442;13.284;2022-08-19T13:03:08;7.53;;;5.68;;
67049;SDS011;53955;52.442;13.284;2022-08-19T13:05:34;7.15;;;5.00;;
67049;SDS011;53955;52.442;13.284;2022-08-19T13:08:01;7.13;;;5.43;;
67049;SDS011;53955;52.442;13.284;2022-08-19T13:10:29;7.95;;;5.72;;
67049;SDS011;53955;52.442;13.284;2022-08-19T13:13:00;7.35;;;5.85;;
67049;SDS011;53955;52.442;13.284;2022-08-19T13:15:27;6.90;;;5.70;;
67049;SDS011;53955;52.442;13.284;2022-08-19T13:17:56;6.78;;;5.40;;
67049;SDS011;53955;52.442;13.284;2022-08-19T13:20:25;7.28;;;5.80;;
67049;SDS011;53955;52.442;13.284;2022-08-19T13:22:53;6.85;;;5.18;;
67049;SDS011;53955;52.442;13.284;2022-08-19T13:25:22;7.50;;;5.88;;
67049;SDS011;53955;52.442;13.284;2022-08-19T13:27:49;7.38;;;5.88;;
67049;SDS011;53955;52.442;13.284;2022-08-19T13:30:17;8.18;;;6.18;;
67049;SDS011;53955;52.442;13.284;2022-08-19T13:33:03;8.70;;;6.05;;
67049;SDS011;53955;52.442;13.284;2022-08-19T13:35:45;8.88;;;6.30;;
67049;SDS011;53955;52.442;13.284;2022-08-19T13:38:13;12.02;;;5.65;;
67049;SDS011;53955;52.442;13.284;2022-08-19T13:40:42;10.50;;;6.65;;
67049;SDS011;53955;52.442;13.284;2022-08-19T13:43:09;8.57;;;5.60;;
67049;SDS011;53955;52.442;13.284;2022-08-19T13:45:35;10.85;;;6.38;;
67049;SDS011;53955;52.442;13.284;2022-08-19T13:48:06;6.70;;;5.53;;
67049;SDS011;53955;52.442;13.284;2022-08-19T13:50:34;7.68;;;6.03;;
67049;SDS011;53955;52.442;13.284;2022-08-19T13:53:07;7.50;;;5.82;;
67049;SDS011;53955;52.442;13.284;2022-08-19T13:55:34;8.45;;;5.95;;
67049;SDS011;53955;52.442;13.284;2022-08-19T13:58:02;7.85;;;5.63;;
67049;SDS011;53955;52.442;13.284;2022-08-19T14:00:31;9.57;;;6.03;;
67049;SDS011;53955;52.442;13.284;2022-08-19T14:03:00;9.15;;;5.88;;
67049;SDS011;53955;52.442;13.284;2022-08-19T14:05:28;9.05;;;5.38;;
67049;SDS011;53955;52.442;13.284;2022-08-19T14:07:56;7.50;;;5.75;;
67049;SDS011;53955;52.442;13.284;2022-08-19T14:10:24;7.85;;;6.13;;
67049;SDS011;53955;52.442;13.284;2022-08-19T14:12:52;7.15;;;5.90;;
67049;SDS011;53955;52.442;13.284;2022-08-19T14:15:20;7.85;;;5.90;;
67049;SDS011;53955;52.442;13.284;2022-08-19T14:17:47;7.93;;;6.07;;
67049;SDS011;53955;52.442;13.284;2022-08-19T14:20:15;7.85;;;5.75;;
67049;SDS011;53955;52.442;13.284;2022-08-19T14:22:42;6.90;;;5.63;;
67049;SDS011;53955;52.442;13.284;2022-08-19T14:25:11;7.20;;;5.63;;
67049;SDS011;53955;52.442;13.284;2022-08-19T14:27:42;6.70;;;5.35;;
67049;SDS011;53955;52.442;13.284;2022-08-19T14:30:10;7.65;;;5.78;;
67049;SDS011;53955;52.442;13.284;2022-08-19T14:32:39;7.90;;;5.72;;
67049;SDS011;53955;52.442;13.284;2022-08-19T14:35:08;7.75;;;6.30;;
67049;SDS011;53955;52.442;13.284;2022-08-19T14:37:35;9.98;;;5.38;;
67049;SDS011;53955;52.442;13.284;2022-08-19T14:40:02;7.47;;;5.53;;
67049;SDS011;53955;52.442;13.284;2022-08-19T14:42:29;7.55;;;5.38;;